Philadelphia, Pennsylvania
Traffic Map
Current Weather Conditions
Philadelphia, Pennsylvania
Clear
Clear

Feels Like: 8°
Wind Chill: Ceiling: Unl
Heat Index: Visibility: 10mi
Dew Point: -9° Wind: 5mph
Humidity: 26% Direction: 50° (NE)
Pressure: 30.03in Gusts: 0mph
Raw Report DataKPHL 250654Z 05004KT 10SM CLR 09/M09 A3003 RMK AO2 SLP167 T00941094
Traffic Incident Summary
Active as of:
Severity:
Category:
InformationThere was an issue retrieving the traffic information for this location. Please try a different location or try again shortly.
Advertisements
At Last! Intellicast now available for iPhone and Android